createdAt,value
2023-02-04T00:02:20.056Z,99965.01
2023-02-04T00:04:49.092Z,99964.83
2023-02-04T00:07:18.663Z,99960.23
2023-02-04T00:09:51.837Z,99951.83
2023-02-04T00:12:20.426Z,99952.53
2023-02-04T00:14:49.021Z,99948.17
2023-02-04T00:17:17.919Z,99948.68
2023-02-04T00:19:46.422Z,99946.70
2023-02-04T00:22:15.407Z,99938.95
2023-02-04T00:24:48.830Z,99939.70
2023-02-04T00:27:17.348Z,99932.63
2023-02-04T00:29:45.831Z,99931.56
2023-02-04T00:32:14.723Z,99928.45
2023-02-04T00:34:43.252Z,99928.36
2023-02-04T00:37:12.241Z,99931.30
2023-02-04T00:39:40.896Z,99930.13
2023-02-04T00:42:09.370Z,99929.80
2023-02-04T00:44:38.082Z,99932.23
2023-02-04T00:47:06.770Z,99931.88
2023-02-04T00:49:35.323Z,99931.73
2023-02-04T00:52:04.169Z,99932.40
2023-02-04T00:54:32.794Z,99933.25
2023-02-04T00:57:01.489Z,99932.22
2023-02-04T00:59:30.078Z,99934.88
2023-02-04T01:01:58.964Z,99937.60
2023-02-04T01:04:28.548Z,99939.02
2023-02-04T01:06:57.179Z,99932.91
2023-02-04T01:09:26.379Z,99935.47
2023-02-04T01:11:55.139Z,99928.37
2023-02-04T01:14:24.597Z,99925.98
2023-02-04T01:16:53.127Z,99924.31
2023-02-04T01:19:21.890Z,99924.81
2023-02-04T01:21:50.573Z,99930.98
2023-02-04T01:24:19.090Z,99926.14
2023-02-04T01:27:06.875Z,99923.02
2023-02-04T01:29:35.706Z,99922.69
2023-02-04T01:32:04.185Z,99918.63
2023-02-04T01:34:32.889Z,99917.65
2023-02-04T01:37:02.741Z,99919.41
2023-02-04T01:39:31.475Z,99919.79
2023-02-04T01:42:01.141Z,99921.89
2023-02-04T01:44:29.679Z,99924.10
2023-02-04T01:46:58.326Z,99926.72
2023-02-04T01:49:28.617Z,99923.71
2023-02-04T01:51:57.619Z,99926.88
2023-02-04T01:54:26.663Z,99929.80
2023-02-04T01:56:55.758Z,99933.94
2023-02-04T01:59:25.367Z,99936.73
2023-02-04T02:01:54.136Z,99936.30
2023-02-04T02:04:30.936Z,99936.15
2023-02-04T02:07:05.106Z,99939.06
2023-02-04T02:09:33.899Z,99938.17
2023-02-04T02:12:06.105Z,99934.58
2023-02-04T02:14:34.996Z,99930.67
2023-02-04T02:17:03.532Z,99931.50
2023-02-04T02:19:35.660Z,99927.34
2023-02-04T02:22:19.286Z,99931.20
2023-02-04T02:24:48.680Z,99926.98
2023-02-04T02:27:17.467Z,99927.35
2023-02-04T02:29:46.472Z,99927.63
2023-02-04T02:32:15.179Z,99929.30
2023-02-04T02:34:44.064Z,99926.64
2023-02-04T02:37:13.278Z,99927.00
2023-02-04T02:39:42.642Z,99926.63
2023-02-04T02:42:13.478Z,99922.60
2023-02-04T02:44:43.725Z,99919.17
2023-02-04T02:47:14.474Z,99915.75
2023-02-04T02:49:43.344Z,99917.23
2023-02-04T02:52:12.553Z,99912.80
2023-02-04T02:54:41.510Z,99910.45
2023-02-04T02:57:16.339Z,99905.34
2023-02-04T02:59:45.350Z,99906.26
2023-02-04T03:02:16.420Z,99903.16
2023-02-04T03:04:48.134Z,99896.17
2023-02-04T03:07:18.472Z,99893.91
2023-02-04T03:09:47.117Z,99893.58
2023-02-04T03:12:15.825Z,99891.16
2023-02-04T03:14:45.000Z,99891.11
2023-02-04T03:17:16.576Z,99891.11
2023-02-04T03:19:45.185Z,99886.98
2023-02-04T03:22:15.031Z,99880.48
2023-02-04T03:24:43.764Z,99878.62
2023-02-04T03:27:12.452Z,99877.23
2023-02-04T03:29:43.397Z,99875.99
2023-02-04T03:32:12.389Z,99873.03
2023-02-04T03:34:40.884Z,99872.48
2023-02-04T03:37:09.476Z,99870.27
2023-02-04T03:39:38.398Z,99870.24
2023-02-04T03:42:07.090Z,99872.05
2023-02-04T03:44:36.126Z,99878.15
2023-02-04T03:47:04.606Z,99876.30
2023-02-04T03:49:33.195Z,99881.58
2023-02-04T03:52:02.120Z,99884.13
2023-02-04T03:54:31.077Z,99884.77
2023-02-04T03:56:59.964Z,99880.27
2023-02-04T03:59:28.447Z,99878.61
2023-02-04T04:01:59.616Z,99878.60
2023-02-04T04:04:28.275Z,99882.13
2023-02-04T04:06:57.104Z,99889.12
2023-02-04T04:09:27.085Z,99894.94
2023-02-04T04:11:55.843Z,99897.75
2023-02-04T04:14:25.412Z,99900.85
2023-02-04T04:16:54.128Z,99904.21
2023-02-04T04:19:24.975Z,99905.17
2023-02-04T04:21:53.442Z,99905.41
2023-02-04T04:24:22.375Z,99903.96
2023-02-04T04:26:50.874Z,99902.25
2023-02-04T04:29:19.554Z,99905.19
2023-02-04T04:31:48.544Z,99907.88
2023-02-04T04:34:17.011Z,99907.52
2023-02-04T04:36:45.702Z,99904.04
2023-02-04T04:39:14.277Z,99906.10
2023-02-04T04:41:42.874Z,99907.10
2023-02-04T04:44:11.559Z,99905.86
2023-02-04T04:46:40.916Z,99906.10
2023-02-04T04:49:09.350Z,99906.27
2023-02-04T04:51:39.141Z,99904.95
2023-02-04T04:54:08.178Z,99906.59
2023-02-04T04:56:38.097Z,99905.47
2023-02-04T04:59:06.631Z,99908.77
2023-02-04T05:01:35.728Z,99909.45
2023-02-04T05:04:04.414Z,99908.23
2023-02-04T05:06:33.723Z,99908.17
2023-02-04T05:09:02.303Z,99910.88
2023-02-04T05:11:31.405Z,99909.73
2023-02-04T05:13:59.889Z,99909.13
2023-02-04T05:16:28.336Z,99905.33
2023-02-04T05:18:57.152Z,99906.21
2023-02-04T05:21:25.539Z,99905.96
2023-02-04T05:23:54.317Z,99902.22
2023-02-04T05:26:30.254Z,99904.16
2023-02-04T05:29:00.762Z,99904.44
2023-02-04T05:31:29.567Z,99901.51
2023-02-04T05:33:58.072Z,99903.09
2023-02-04T05:36:26.451Z,99904.23
2023-02-04T05:38:55.837Z,99904.89
2023-02-04T05:41:24.347Z,99908.05
2023-02-04T05:43:53.030Z,99906.12
2023-02-04T05:46:21.502Z,99906.83
2023-02-04T05:48:50.297Z,99908.52
2023-02-04T05:51:18.778Z,99907.30
2023-02-04T05:53:47.573Z,99907.42
2023-02-04T05:56:16.000Z,99908.37
2023-02-04T05:58:44.491Z,99911.73
2023-02-04T06:01:12.937Z,99915.27
2023-02-04T06:03:41.417Z,99914.54
2023-02-04T06:06:10.031Z,99912.89
2023-02-04T06:08:39.325Z,99913.42
2023-02-04T06:11:07.848Z,99916.06
2023-02-04T06:13:36.330Z,99919.20
2023-02-04T06:16:04.963Z,99919.29
2023-02-04T06:18:34.212Z,99918.09
2023-02-04T06:21:05.050Z,99922.34
2023-02-04T06:23:34.768Z,99925.91
2023-02-04T06:26:03.171Z,99927.88
2023-02-04T06:28:31.637Z,99927.04
2023-02-04T06:31:02.283Z,99928.84
2023-02-04T06:33:31.691Z,99932.81
2023-02-04T06:36:01.008Z,99936.44
2023-02-04T06:38:30.830Z,99937.91
2023-02-04T06:40:59.660Z,99937.52
2023-02-04T06:43:28.448Z,99940.77
2023-02-04T06:45:57.014Z,99940.77
2023-02-04T06:48:25.635Z,99947.05
2023-02-04T06:50:53.994Z,99947.02
2023-02-04T06:53:22.479Z,99948.46
2023-02-04T06:55:52.389Z,99946.65
2023-02-04T06:58:21.089Z,99946.89
2023-02-04T07:00:50.183Z,99947.88
2023-02-04T07:03:18.985Z,99952.78
2023-02-04T07:05:47.577Z,99954.62
2023-02-04T07:08:16.038Z,99952.69
2023-02-04T07:10:44.540Z,99957.31
2023-02-04T07:13:20.792Z,99956.24
2023-02-04T07:15:50.111Z,99955.89
2023-02-04T07:18:20.191Z,99957.90
2023-02-04T07:20:48.782Z,99958.55
2023-02-04T07:23:17.217Z,99962.76
2023-02-04T07:25:45.653Z,99961.12
2023-02-04T07:28:14.178Z,99960.63
2023-02-04T07:30:42.978Z,99961.31
2023-02-04T07:33:11.781Z,99961.67
2023-02-04T07:35:40.275Z,99963.34
2023-02-04T07:38:08.871Z,99962.38
2023-02-04T07:40:37.746Z,99963.05
2023-02-04T07:43:06.493Z,99962.36
2023-02-04T07:45:36.348Z,99963.84
2023-02-04T07:48:05.744Z,99963.07
2023-02-04T07:50:34.578Z,99961.58
2023-02-04T07:53:03.627Z,99963.98
2023-02-04T07:55:32.310Z,99962.63
2023-02-04T07:58:01.204Z,99965.52
2023-02-04T08:00:30.489Z,99967.83
2023-02-04T08:02:59.186Z,99968.98
2023-02-04T08:05:27.729Z,99972.66
2023-02-04T08:07:56.485Z,99970.83
2023-02-04T08:10:25.077Z,99969.41
2023-02-04T08:12:55.025Z,99968.98
2023-02-04T08:15:23.542Z,99967.16
2023-02-04T08:17:52.328Z,99969.56
2023-02-04T08:20:20.879Z,99968.30
2023-02-04T08:22:49.472Z,99970.89
2023-02-04T08:25:18.075Z,99965.63
2023-02-04T08:27:46.380Z,99964.09
2023-02-04T08:30:15.347Z,99959.35
2023-02-04T08:32:43.935Z,99956.58
2023-02-04T08:35:12.932Z,99958.78
2023-02-04T08:37:42.632Z,99958.64
2023-02-04T08:40:11.930Z,99957.55
2023-02-04T08:42:41.358Z,99957.66
2023-02-04T08:45:10.235Z,99952.91
2023-02-04T08:47:38.734Z,99946.98
2023-02-04T08:50:08.017Z,99942.73
2023-02-04T08:52:38.144Z,99940.17
2023-02-04T08:55:07.240Z,99940.48
2023-02-04T08:57:37.364Z,99938.55
2023-02-04T09:00:06.258Z,99937.19
2023-02-04T09:02:35.464Z,99934.59
2023-02-04T09:05:05.269Z,99931.13
2023-02-04T09:07:33.960Z,99929.33
2023-02-04T09:10:02.561Z,99927.23
2023-02-04T09:12:32.969Z,99926.90
2023-02-04T09:15:01.860Z,99927.25
2023-02-04T09:17:34.200Z,99924.17
2023-02-04T09:20:03.802Z,99923.22
2023-02-04T09:22:32.738Z,99921.98
2023-02-04T09:25:01.318Z,99924.20
2023-02-04T09:27:30.043Z,99923.34
2023-02-04T09:29:58.612Z,99918.65
2023-02-04T09:32:27.270Z,99919.92
2023-02-04T09:34:55.701Z,99915.41
2023-02-04T09:37:27.169Z,99914.00
2023-02-04T09:39:55.822Z,99913.86
2023-02-04T09:42:24.222Z,99914.60
2023-02-04T09:44:53.179Z,99918.43
2023-02-04T09:47:22.715Z,99914.60
2023-02-04T09:49:51.770Z,99916.00
2023-02-04T09:52:20.427Z,99915.52
2023-02-04T09:54:48.940Z,99913.15
2023-02-04T09:57:19.049Z,99910.72
2023-02-04T09:59:47.394Z,99913.84
2023-02-04T10:02:22.165Z,99912.17
2023-02-04T10:04:52.186Z,99909.79
2023-02-04T10:07:22.547Z,99907.56
2023-02-04T10:09:52.102Z,99905.23
2023-02-04T10:12:20.878Z,99908.91
2023-02-04T10:14:49.570Z,99910.02
2023-02-04T10:17:21.033Z,99905.90
2023-02-04T10:19:49.926Z,99903.60
2023-02-04T10:22:21.065Z,99900.75
2023-02-04T10:24:49.525Z,99893.05
2023-02-04T10:27:18.327Z,99894.46
2023-02-04T10:29:57.698Z,99889.04
2023-02-04T10:32:28.502Z,99883.80
2023-02-04T10:34:59.196Z,99885.77
2023-02-04T10:37:27.829Z,99889.87
2023-02-04T10:39:56.250Z,99888.55
2023-02-04T10:42:26.584Z,99890.05
2023-02-04T10:44:55.200Z,99890.02
2023-02-04T10:47:24.918Z,99889.52
2023-02-04T10:50:15.173Z,99890.77
2023-02-04T10:52:44.816Z,99893.14
2023-02-04T10:55:20.700Z,99891.48
2023-02-04T10:57:50.101Z,99891.23
2023-02-04T11:00:23.603Z,99891.61
2023-02-04T11:03:08.593Z,99890.80
2023-02-04T11:05:37.238Z,99892.16
2023-02-04T11:08:36.801Z,99889.17
2023-02-04T11:11:13.200Z,99888.60
2023-02-04T11:13:42.706Z,99891.31
2023-02-04T11:16:17.696Z,99893.69
2023-02-04T11:18:50.328Z,99895.90
2023-02-04T11:21:29.634Z,99898.88
2023-02-04T11:24:16.488Z,99893.15
2023-02-04T11:27:12.083Z,99896.36
2023-02-04T11:29:42.635Z,99899.86
2023-02-04T11:32:31.375Z,99903.12
2023-02-04T11:35:11.883Z,99905.60
2023-02-04T11:37:41.798Z,99904.66
2023-02-04T11:40:26.884Z,99904.59
2023-02-04T11:43:11.599Z,99900.27
2023-02-04T11:45:39.961Z,99901.98
2023-02-04T11:48:14.175Z,99904.95
2023-02-04T11:50:42.766Z,99904.16
2023-02-04T11:53:13.278Z,99904.13
2023-02-04T11:55:47.580Z,99906.39
2023-02-04T11:58:17.718Z,99905.98
2023-02-04T12:00:46.723Z,99907.32
2023-02-04T12:03:35.801Z,99911.12
2023-02-04T12:06:04.692Z,99916.38
2023-02-04T12:08:34.787Z,99919.02
2023-02-04T12:11:11.369Z,99921.63
2023-02-04T12:13:49.685Z,99922.51
2023-02-04T12:16:19.045Z,99927.62
2023-02-04T12:18:47.559Z,99926.64
2023-02-04T12:21:16.549Z,99928.45
2023-02-04T12:23:45.406Z,99927.70
2023-02-04T12:26:14.121Z,99930.35
2023-02-04T12:28:42.646Z,99931.88
2023-02-04T12:31:11.361Z,99930.55
2023-02-04T12:33:39.983Z,99936.40
2023-02-04T12:36:09.275Z,99938.48
2023-02-04T12:38:37.757Z,99938.02
2023-02-04T12:41:06.243Z,99936.36
2023-02-04T12:43:35.332Z,99938.78
2023-02-04T12:46:04.275Z,99939.20
2023-02-04T12:48:33.508Z,99938.77
2023-02-04T12:51:02.004Z,99939.80
2023-02-04T12:53:30.564Z,99944.69
2023-02-04T12:55:59.280Z,99942.30
2023-02-04T12:58:27.755Z,99945.61
2023-02-04T13:00:56.427Z,99947.61
2023-02-04T13:03:25.582Z,99948.20
2023-02-04T13:05:54.790Z,99951.55
2023-02-04T13:08:23.361Z,99949.59
2023-02-04T13:10:52.387Z,99954.05
2023-02-04T13:13:22.653Z,99954.87
2023-02-04T13:15:51.587Z,99954.66
2023-02-04T13:18:20.227Z,99957.50
2023-02-04T13:20:50.337Z,99960.34
2023-02-04T13:23:18.980Z,99965.50
2023-02-04T13:25:47.601Z,99970.45
2023-02-04T13:28:18.545Z,99974.52
2023-02-04T13:30:47.227Z,99974.45
2023-02-04T13:33:16.863Z,99974.23
2023-02-04T13:35:46.063Z,99977.27
2023-02-04T13:38:14.416Z,99980.16
2023-02-04T13:40:42.896Z,99977.82
2023-02-04T13:43:11.292Z,99986.90
2023-02-04T13:45:40.903Z,99989.92
2023-02-04T13:48:09.472Z,99991.19
2023-02-04T13:50:38.302Z,99992.63
2023-02-04T13:53:07.147Z,99996.00
2023-02-04T13:55:36.782Z,99999.41
2023-02-04T13:58:05.560Z,99997.59
2023-02-04T14:00:34.803Z,99999.25
2023-02-04T14:03:03.736Z,99994.58
2023-02-04T14:05:32.733Z,99995.05
2023-02-04T14:08:01.244Z,99997.64
2023-02-04T14:10:31.063Z,99997.93
2023-02-04T14:13:00.171Z,100000.83
2023-02-04T14:15:28.528Z,100002.20
2023-02-04T14:17:57.305Z,100006.05
2023-02-04T14:20:25.991Z,100006.30
2023-02-04T14:22:54.793Z,100008.59
2023-02-04T14:25:23.964Z,100012.81
2023-02-04T14:27:52.606Z,100010.85
2023-02-04T14:30:23.222Z,100014.15
2023-02-04T14:32:51.786Z,100015.60
2023-02-04T14:35:20.643Z,100019.27
2023-02-04T14:37:49.665Z,100016.56
2023-02-04T14:40:19.350Z,100019.30
2023-02-04T14:42:47.829Z,100022.79
2023-02-04T14:45:16.412Z,100024.07
2023-02-04T14:47:45.338Z,100026.67
2023-02-04T14:50:15.629Z,100024.95
2023-02-04T14:52:44.350Z,100029.88
2023-02-04T14:55:14.669Z,100041.48
2023-02-04T14:57:44.055Z,100042.23
2023-02-04T15:00:13.174Z,100043.89
2023-02-04T15:02:42.951Z,100049.96
2023-02-04T15:05:12.359Z,100056.33
2023-02-04T15:07:41.189Z,100058.20
2023-02-04T15:10:12.224Z,100064.35
2023-02-04T15:12:44.537Z,100071.89
2023-02-04T15:15:13.240Z,100074.80
2023-02-04T15:17:42.660Z,100079.54
2023-02-04T15:20:11.637Z,100081.86
2023-02-04T15:22:40.531Z,100083.06
2023-02-04T15:25:14.464Z,100083.64
2023-02-04T15:27:43.291Z,100086.77
2023-02-04T15:30:11.913Z,100085.61
2023-02-04T15:32:43.156Z,100091.56
2023-02-04T15:35:12.671Z,100091.14
2023-02-04T15:37:41.352Z,100090.56
2023-02-04T15:40:11.258Z,100094.38
2023-02-04T15:42:41.069Z,100098.13
2023-02-04T15:45:09.762Z,100099.73
2023-02-04T15:47:38.098Z,100107.10
2023-02-04T15:50:09.316Z,100103.95
2023-02-04T15:52:39.108Z,100107.30
2023-02-04T15:55:08.105Z,100111.02
2023-02-04T15:57:37.092Z,100112.17
2023-02-04T16:00:06.604Z,100112.91
2023-02-04T16:02:36.080Z,100119.66
2023-02-04T16:05:05.190Z,100119.22
2023-02-04T16:07:34.270Z,100124.20
2023-02-04T16:10:02.974Z,100125.79
2023-02-04T16:12:32.479Z,100127.02
2023-02-04T16:15:00.970Z,100131.48
2023-02-04T16:17:30.488Z,100135.84
2023-02-04T16:19:59.151Z,100136.23
2023-02-04T16:22:27.661Z,100137.41
2023-02-04T16:24:56.759Z,100138.70
2023-02-04T16:27:26.989Z,100140.19
2023-02-04T16:29:56.929Z,100143.05
2023-02-04T16:32:26.331Z,100146.91
2023-02-04T16:34:56.876Z,100152.33
2023-02-04T16:37:25.817Z,100153.86
2023-02-04T16:39:54.367Z,100155.02
2023-02-04T16:42:22.950Z,100157.06
2023-02-04T16:44:51.228Z,100158.07
2023-02-04T16:47:19.658Z,100157.85
2023-02-04T16:49:49.215Z,100156.19
2023-02-04T16:52:18.166Z,100160.20
2023-02-04T16:54:46.622Z,100162.84
2023-02-04T16:57:15.885Z,100165.02
2023-02-04T16:59:44.826Z,100165.02
2023-02-04T17:02:13.402Z,100162.92
2023-02-04T17:04:41.946Z,100165.33
2023-02-04T17:07:11.244Z,100166.81
2023-02-04T17:09:40.340Z,100172.39
2023-02-04T17:12:13.945Z,100177.45
2023-02-04T17:14:42.937Z,100179.55
2023-02-04T17:17:11.489Z,100180.77
2023-02-04T17:19:40.227Z,100181.39
2023-02-04T17:22:08.796Z,100179.39
2023-02-04T17:24:42.830Z,100180.84
2023-02-04T17:27:12.124Z,100183.54
2023-02-04T17:29:42.344Z,100185.14
2023-02-04T17:32:12.607Z,100187.30
2023-02-04T17:34:41.033Z,100188.55
2023-02-04T17:37:09.508Z,100187.88
2023-02-04T17:39:37.991Z,100184.44
2023-02-04T17:42:07.086Z,100186.40
2023-02-04T17:44:35.735Z,100181.55
2023-02-04T17:47:05.284Z,100181.81
2023-02-04T17:49:34.496Z,100177.39
2023-02-04T17:52:03.617Z,100180.13
2023-02-04T17:54:32.861Z,100186.05
2023-02-04T17:57:02.400Z,100186.70
2023-02-04T17:59:35.429Z,100184.09
2023-02-04T18:02:12.983Z,100183.16
2023-02-04T18:04:41.762Z,100182.23
2023-02-04T18:07:10.741Z,100183.98
2023-02-04T18:09:39.530Z,100188.61
2023-02-04T18:12:15.902Z,100185.51
2023-02-04T18:14:46.736Z,100181.23
2023-02-04T18:17:16.074Z,100181.19
2023-02-04T18:19:48.301Z,100182.31
2023-02-04T18:22:18.011Z,100186.52
2023-02-04T18:24:48.993Z,100188.83
2023-02-04T18:27:25.057Z,100188.76
2023-02-04T18:29:59.428Z,100195.55
2023-02-04T18:32:37.470Z,100198.64
2023-02-04T18:35:25.326Z,100201.86
2023-02-04T18:37:53.798Z,100202.55
2023-02-04T18:40:26.668Z,100205.09
2023-02-04T18:43:10.371Z,100211.17
2023-02-04T18:45:39.388Z,100216.95
2023-02-04T18:48:20.343Z,100220.63
2023-02-04T18:50:50.003Z,100220.56
2023-02-04T18:53:26.084Z,100223.00
2023-02-04T18:55:56.922Z,100223.58
2023-02-04T18:58:36.710Z,100231.73
2023-02-04T19:01:11.748Z,100231.76
2023-02-04T19:04:00.782Z,100231.58
2023-02-04T19:06:39.734Z,100234.83
2023-02-04T19:09:11.168Z,100234.95
2023-02-04T19:11:42.452Z,100232.05
2023-02-04T19:14:19.233Z,100232.52
2023-02-04T19:16:50.841Z,100230.84
2023-02-04T19:19:40.248Z,100238.00
2023-02-04T19:22:20.688Z,100237.40
2023-02-04T19:24:50.729Z,100239.59
2023-02-04T19:27:34.795Z,100238.46
2023-02-04T19:30:29.624Z,100240.70
2023-02-04T19:32:59.131Z,100238.10
2023-02-04T19:35:39.402Z,100234.94
2023-02-04T19:38:45.577Z,100241.04
2023-02-04T19:41:21.518Z,100241.94
2023-02-04T19:43:50.018Z,100246.86
2023-02-04T19:46:24.136Z,100248.39
2023-02-04T19:48:52.904Z,100249.32
2023-02-04T19:51:28.934Z,100249.70
2023-02-04T19:54:01.833Z,100248.19
2023-02-04T19:56:40.321Z,100245.59
2023-02-04T19:59:31.212Z,100242.17
2023-02-04T20:02:22.552Z,100245.15
2023-02-04T20:04:53.430Z,100248.54
2023-02-04T20:07:23.447Z,100252.70
2023-02-04T20:10:15.680Z,100254.97
2023-02-04T20:12:44.705Z,100258.17
2023-02-04T20:15:17.662Z,100258.58
2023-02-04T20:17:49.556Z,100261.23
2023-02-04T20:20:19.534Z,100265.21
2023-02-04T20:22:52.050Z,100269.48
2023-02-04T20:25:20.932Z,100266.73
2023-02-04T20:27:55.323Z,100269.36
2023-02-04T20:30:28.900Z,100265.69
2023-02-04T20:32:59.764Z,100267.58
2023-02-04T20:35:34.539Z,100266.88
2023-02-04T20:38:11.022Z,100269.98
2023-02-04T20:40:39.755Z,100267.59
2023-02-04T20:43:21.143Z,100274.44
2023-02-04T20:45:51.301Z,100273.60
2023-02-04T20:48:25.236Z,100273.89
2023-02-04T20:50:57.323Z,100276.17
2023-02-04T20:53:39.356Z,100282.78
2023-02-04T20:56:24.503Z,100290.28
2023-02-04T20:59:12.999Z,100291.84
2023-02-04T21:01:49.144Z,100293.56
2023-02-04T21:04:23.744Z,100293.58
2023-02-04T21:06:54.989Z,100291.13
2023-02-04T21:09:34.522Z,100290.54
2023-02-04T21:12:03.102Z,100289.34
2023-02-04T21:14:32.043Z,100290.91
2023-02-04T21:17:01.253Z,100294.30
2023-02-04T21:19:31.290Z,100297.11
2023-02-04T21:21:59.808Z,100299.64
2023-02-04T21:24:31.660Z,100300.43
2023-02-04T21:27:00.436Z,100297.34
2023-02-04T21:29:28.942Z,100302.31
2023-02-04T21:31:57.655Z,100300.14
2023-02-04T21:34:26.209Z,100297.34
2023-02-04T21:36:54.804Z,100294.52
2023-02-04T21:39:23.564Z,100297.20
2023-02-04T21:42:10.326Z,100289.61
2023-02-04T21:44:39.483Z,100288.06
2023-02-04T21:47:08.443Z,100293.57
2023-02-04T21:49:40.212Z,100295.48
2023-02-04T21:52:10.733Z,100295.38
2023-02-04T21:54:39.338Z,100298.88
2023-02-04T21:57:08.245Z,100299.55
2023-02-04T21:59:37.010Z,100309.02
2023-02-04T22:02:06.270Z,100311.60
2023-02-04T22:04:35.251Z,100314.15
2023-02-04T22:07:03.732Z,100316.75
2023-02-04T22:09:32.224Z,100315.80
2023-02-04T22:12:00.810Z,100317.68
2023-02-04T22:14:29.601Z,100317.69
2023-02-04T22:16:57.984Z,100316.94
2023-02-04T22:19:26.779Z,100317.11
2023-02-04T22:21:55.603Z,100319.98
2023-02-04T22:24:24.127Z,100326.80
2023-02-04T22:26:53.798Z,100331.86
2023-02-04T22:29:29.181Z,100338.44
2023-02-04T22:31:58.078Z,100334.98
2023-02-04T22:34:27.480Z,100335.09
2023-02-04T22:36:56.381Z,100338.63
2023-02-04T22:39:24.772Z,100340.09
2023-02-04T22:41:53.380Z,100339.96
2023-02-04T22:44:22.059Z,100341.89
2023-02-04T22:46:50.663Z,100339.06
2023-02-04T22:49:19.240Z,100342.46
2023-02-04T22:51:48.388Z,100340.27
2023-02-04T22:54:17.174Z,100337.66
2023-02-04T22:56:45.862Z,100338.98
2023-02-04T22:59:14.445Z,100343.02
2023-02-04T23:01:43.146Z,100346.19
2023-02-04T23:04:11.827Z,100344.89
2023-02-04T23:06:40.412Z,100347.88
2023-02-04T23:09:08.949Z,100354.52
2023-02-04T23:11:39.555Z,100358.07
2023-02-04T23:14:09.418Z,100360.05
2023-02-04T23:16:38.512Z,100363.52
2023-02-04T23:19:07.406Z,100362.77
2023-02-04T23:21:36.291Z,100366.09
2023-02-04T23:24:05.284Z,100365.85
2023-02-04T23:26:33.653Z,100364.66
2023-02-04T23:29:02.381Z,100364.16
2023-02-04T23:31:31.039Z,100363.45
2023-02-04T23:33:59.413Z,100364.18
2023-02-04T23:36:27.942Z,100365.09
2023-02-04T23:38:56.482Z,100364.35
2023-02-04T23:41:25.439Z,100362.51
2023-02-04T23:43:54.468Z,100365.92
2023-02-04T23:46:23.026Z,100364.23
2023-02-04T23:48:51.492Z,100361.17
2023-02-04T23:51:20.014Z,100362.14
2023-02-04T23:53:48.652Z,100359.73
2023-02-04T23:56:17.209Z,100357.70
2023-02-04T23:58:45.765Z,100356.59
